sensor_id;sensor_type;location;lat;lon;timestamp;P1;P2;P0
54869;PMS5003;40756;-37.950;145.008;2023-08-24T00:01:03;4;4;
54869;PMS5003;40756;-37.950;145.008;2023-08-24T00:03:32;3;3;
54869;PMS5003;40756;-37.950;145.008;2023-08-24T00:06:02;5;5;
54869;PMS5003;40756;-37.950;145.008;2023-08-24T00:08:31;2;2;
54869;PMS5003;40756;-37.950;145.008;2023-08-24T00:11:01;6;5;
54869;PMS5003;40756;-37.950;145.008;2023-08-24T00:13:31;4;4;
54869;PMS5003;40756;-37.950;145.008;2023-08-24T00:16:00;2;2;
54869;PMS5003;40756;-37.950;145.008;2023-08-24T00:18:30;3;3;
54869;PMS5003;40756;-37.950;145.008;2023-08-24T00:20:59;3;2;
54869;PMS5003;40756;-37.950;145.008;2023-08-24T00:23:29;4;3;
54869;PMS5003;40756;-37.950;145.008;2023-08-24T00:25:59;1;1;
54869;PMS5003;40756;-37.950;145.008;2023-08-24T00:28:28;3;2;
54869;PMS5003;40756;-37.950;145.008;2023-08-24T00:30:58;1;1;
54869;PMS5003;40756;-37.950;145.008;2023-08-24T00:33:27;11;10;
54869;PMS5003;40756;-37.950;145.008;2023-08-24T00:35:59;7;7;
54869;PMS5003;40756;-37.950;145.008;2023-08-24T00:38:29;2;2;
54869;PMS5003;40756;-37.950;145.008;2023-08-24T00:40:59;1;1;
54869;PMS5003;40756;-37.950;145.008;2023-08-24T00:43:29;0;0;
54869;PMS5003;40756;-37.950;145.008;2023-08-24T00:45:59;0;0;
54869;PMS5003;40756;-37.950;145.008;2023-08-24T00:48:30;2;1;
54869;PMS5003;40756;-37.950;145.008;2023-08-24T00:51:00;2;0;
54869;PMS5003;40756;-37.950;145.008;2023-08-24T00:53:30;4;3;
54869;PMS5003;40756;-37.950;145.008;2023-08-24T00:56:00;2;1;
54869;PMS5003;40756;-37.950;145.008;2023-08-24T00:58:31;0;0;
54869;PMS5003;40756;-37.950;145.008;2023-08-24T01:01:03;0;0;
54869;PMS5003;40756;-37.950;145.008;2023-08-24T01:03:33;1;0;
54869;PMS5003;40756;-37.950;145.008;2023-08-24T01:06:02;0;0;
54869;PMS5003;40756;-37.950;145.008;2023-08-24T01:08:32;0;0;
54869;PMS5003;40756;-37.950;145.008;2023-08-24T01:11:04;0;0;
54869;PMS5003;40756;-37.950;145.008;2023-08-24T01:13:45;0;0;
54869;PMS5003;40756;-37.950;145.008;2023-08-24T01:16:19;1;1;
54869;PMS5003;40756;-37.950;145.008;2023-08-24T01:18:52;0;0;
54869;PMS5003;40756;-37.950;145.008;2023-08-24T01:21:23;0;0;
54869;PMS5003;40756;-37.950;145.008;2023-08-24T01:23:56;1;1;
54869;PMS5003;40756;-37.950;145.008;2023-08-24T01:26:31;1;0;
54869;PMS5003;40756;-37.950;145.008;2023-08-24T01:29:01;1;1;
54869;PMS5003;40756;-37.950;145.008;2023-08-24T01:31:32;0;0;
54869;PMS5003;40756;-37.950;145.008;2023-08-24T01:34:02;1;1;
54869;PMS5003;40756;-37.950;145.008;2023-08-24T01:36:31;1;1;
54869;PMS5003;40756;-37.950;145.008;2023-08-24T01:39:06;1;1;
54869;PMS5003;40756;-37.950;145.008;2023-08-24T01:41:42;0;0;
54869;PMS5003;40756;-37.950;145.008;2023-08-24T01:44:18;3;2;
54869;PMS5003;40756;-37.950;145.008;2023-08-24T01:46:50;2;1;
54869;PMS5003;40756;-37.950;145.008;2023-08-24T01:49:22;2;2;
54869;PMS5003;40756;-37.950;145.008;2023-08-24T01:51:52;1;1;
54869;PMS5003;40756;-37.950;145.008;2023-08-24T01:54:22;1;1;
54869;PMS5003;40756;-37.950;145.008;2023-08-24T01:56:52;0;0;
54869;PMS5003;40756;-37.950;145.008;2023-08-24T01:59:21;1;1;
54869;PMS5003;40756;-37.950;145.008;2023-08-24T02:01:51;1;0;
54869;PMS5003;40756;-37.950;145.008;2023-08-24T02:04:20;1;1;
54869;PMS5003;40756;-37.950;145.008;2023-08-24T02:06:50;0;0;
54869;PMS5003;40756;-37.950;145.008;2023-08-24T02:09:20;0;0;
54869;PMS5003;40756;-37.950;145.008;2023-08-24T02:11:49;0;0;
54869;PMS5003;40756;-37.950;145.008;2023-08-24T02:14:19;0;0;
54869;PMS5003;40756;-37.950;145.008;2023-08-24T02:16:48;0;0;
54869;PMS5003;40756;-37.950;145.008;2023-08-24T02:19:18;7;6;
54869;PMS5003;40756;-37.950;145.008;2023-08-24T02:21:47;8;7;
54869;PMS5003;40756;-37.950;145.008;2023-08-24T02:24:17;0;0;
54869;PMS5003;40756;-37.950;145.008;2023-08-24T02:26:46;4;3;
54869;PMS5003;40756;-37.950;145.008;2023-08-24T02:29:16;2;2;
54869;PMS5003;40756;-37.950;145.008;2023-08-24T02:31:45;4;3;
54869;PMS5003;40756;-37.950;145.008;2023-08-24T02:34:17;1;1;
54869;PMS5003;40756;-37.950;145.008;2023-08-24T02:36:47;3;3;
54869;PMS5003;40756;-37.950;145.008;2023-08-24T02:39:17;2;2;
54869;PMS5003;40756;-37.950;145.008;2023-08-24T02:41:46;4;4;
54869;PMS5003;40756;-37.950;145.008;2023-08-24T02:44:15;1;1;
54869;PMS5003;40756;-37.950;145.008;2023-08-24T02:46:47;1;1;
54869;PMS5003;40756;-37.950;145.008;2023-08-24T02:49:17;1;1;
54869;PMS5003;40756;-37.950;145.008;2023-08-24T02:51:46;3;2;
54869;PMS5003;40756;-37.950;145.008;2023-08-24T02:54:16;3;2;
54869;PMS5003;40756;-37.950;145.008;2023-08-24T02:56:45;2;1;
54869;PMS5003;40756;-37.950;145.008;2023-08-24T02:59:15;3;3;
54869;PMS5003;40756;-37.950;145.008;2023-08-24T03:01:44;2;2;
54869;PMS5003;40756;-37.950;145.008;2023-08-24T03:04:14;1;1;
54869;PMS5003;40756;-37.950;145.008;2023-08-24T03:06:43;1;1;
54869;PMS5003;40756;-37.950;145.008;2023-08-24T03:09:13;1;1;
54869;PMS5003;40756;-37.950;145.008;2023-08-24T03:11:43;2;2;
54869;PMS5003;40756;-37.950;145.008;2023-08-24T03:14:12;1;1;
54869;PMS5003;40756;-37.950;145.008;2023-08-24T03:16:42;0;0;
54869;PMS5003;40756;-37.950;145.008;2023-08-24T03:19:11;0;0;
54869;PMS5003;40756;-37.950;145.008;2023-08-24T03:21:40;0;0;
54869;PMS5003;40756;-37.950;145.008;2023-08-24T03:24:10;1;1;
54869;PMS5003;40756;-37.950;145.008;2023-08-24T03:26:39;1;1;
54869;PMS5003;40756;-37.950;145.008;2023-08-24T03:29:09;0;0;
54869;PMS5003;40756;-37.950;145.008;2023-08-24T03:31:38;1;1;
54869;PMS5003;40756;-37.950;145.008;2023-08-24T03:34:08;27;27;
54869;PMS5003;40756;-37.950;145.008;2023-08-24T03:36:37;3;3;
54869;PMS5003;40756;-37.950;145.008;2023-08-24T03:39:06;2;2;
54869;PMS5003;40756;-37.950;145.008;2023-08-24T03:41:36;0;0;
54869;PMS5003;40756;-37.950;145.008;2023-08-24T03:44:05;0;0;
54869;PMS5003;40756;-37.950;145.008;2023-08-24T03:46:35;0;0;
54869;PMS5003;40756;-37.950;145.008;2023-08-24T03:49:05;1;1;
54869;PMS5003;40756;-37.950;145.008;2023-08-24T03:51:34;1;1;
54869;PMS5003;40756;-37.950;145.008;2023-08-24T03:54:04;3;3;
54869;PMS5003;40756;-37.950;145.008;2023-08-24T03:56:33;4;4;
54869;PMS5003;40756;-37.950;145.008;2023-08-24T03:59:03;0;0;
54869;PMS5003;40756;-37.950;145.008;2023-08-24T04:01:32;2;1;
54869;PMS5003;40756;-37.950;145.008;2023-08-24T04:04:01;0;0;
54869;PMS5003;40756;-37.950;145.008;2023-08-24T04:06:31;1;0;
54869;PMS5003;40756;-37.950;145.008;2023-08-24T04:09:00;1;1;
54869;PMS5003;40756;-37.950;145.008;2023-08-24T04:11:29;0;0;
54869;PMS5003;40756;-37.950;145.008;2023-08-24T04:13:59;1;1;
54869;PMS5003;40756;-37.950;145.008;2023-08-24T04:16:28;0;0;
54869;PMS5003;40756;-37.950;145.008;2023-08-24T04:18:57;0;0;
54869;PMS5003;40756;-37.950;145.008;2023-08-24T04:21:29;1;1;
54869;PMS5003;40756;-37.950;145.008;2023-08-24T04:23:59;2;2;
54869;PMS5003;40756;-37.950;145.008;2023-08-24T04:26:28;1;1;
54869;PMS5003;40756;-37.950;145.008;2023-08-24T04:28:58;0;0;
54869;PMS5003;40756;-37.950;145.008;2023-08-24T04:31:27;2;2;
54869;PMS5003;40756;-37.950;145.008;2023-08-24T04:33:56;3;2;
54869;PMS5003;40756;-37.950;145.008;2023-08-24T04:36:26;2;2;
54869;PMS5003;40756;-37.950;145.008;2023-08-24T04:38:55;2;2;
54869;PMS5003;40756;-37.950;145.008;2023-08-24T04:41:26;0;0;
54869;PMS5003;40756;-37.950;145.008;2023-08-24T04:43:56;1;1;
54869;PMS5003;40756;-37.950;145.008;2023-08-24T04:46:26;2;1;
54869;PMS5003;40756;-37.950;145.008;2023-08-24T04:48:55;0;0;
54869;PMS5003;40756;-37.950;145.008;2023-08-24T04:51:25;0;0;
54869;PMS5003;40756;-37.950;145.008;2023-08-24T04:53:55;1;1;
54869;PMS5003;40756;-37.950;145.008;2023-08-24T04:56:24;2;1;
54869;PMS5003;40756;-37.950;145.008;2023-08-24T04:58:54;1;0;
54869;PMS5003;40756;-37.950;145.008;2023-08-24T05:01:24;1;1;
54869;PMS5003;40756;-37.950;145.008;2023-08-24T05:03:53;1;1;
54869;PMS5003;40756;-37.950;145.008;2023-08-24T05:06:22;1;1;
54869;PMS5003;40756;-37.950;145.008;2023-08-24T05:08:52;0;0;
54869;PMS5003;40756;-37.950;145.008;2023-08-24T05:11:22;0;0;
54869;PMS5003;40756;-37.950;145.008;2023-08-24T05:13:54;0;0;
54869;PMS5003;40756;-37.950;145.008;2023-08-24T05:16:24;0;0;
54869;PMS5003;40756;-37.950;145.008;2023-08-24T05:18:53;1;1;
54869;PMS5003;40756;-37.950;145.008;2023-08-24T05:21:23;0;0;
54869;PMS5003;40756;-37.950;145.008;2023-08-24T05:23:52;1;1;
54869;PMS5003;40756;-37.950;145.008;2023-08-24T05:26:22;0;0;
54869;PMS5003;40756;-37.950;145.008;2023-08-24T05:28:52;1;1;
54869;PMS5003;40756;-37.950;145.008;2023-08-24T05:31:22;2;2;
54869;PMS5003;40756;-37.950;145.008;2023-08-24T05:33:52;4;3;
54869;PMS5003;40756;-37.950;145.008;2023-08-24T05:36:21;1;1;
54869;PMS5003;40756;-37.950;145.008;2023-08-24T05:38:50;2;2;
54869;PMS5003;40756;-37.950;145.008;2023-08-24T05:41:20;0;0;
54869;PMS5003;40756;-37.950;145.008;2023-08-24T05:43:49;2;1;
54869;PMS5003;40756;-37.950;145.008;2023-08-24T05:46:19;1;1;
54869;PMS5003;40756;-37.950;145.008;2023-08-24T05:48:48;3;1;
54869;PMS5003;40756;-37.950;145.008;2023-08-24T05:51:17;1;0;
54869;PMS5003;40756;-37.950;145.008;2023-08-24T05:53:48;2;2;
54869;PMS5003;40756;-37.950;145.008;2023-08-24T05:56:17;2;2;
54869;PMS5003;40756;-37.950;145.008;2023-08-24T05:58:47;3;3;
54869;PMS5003;40756;-37.950;145.008;2023-08-24T06:01:16;2;2;
54869;PMS5003;40756;-37.950;145.008;2023-08-24T06:03:46;3;3;
54869;PMS5003;40756;-37.950;145.008;2023-08-24T06:06:16;2;2;
54869;PMS5003;40756;-37.950;145.008;2023-08-24T06:08:46;2;2;
54869;PMS5003;40756;-37.950;145.008;2023-08-24T06:11:23;0;0;
54869;PMS5003;40756;-37.950;145.008;2023-08-24T06:14:04;0;0;
54869;PMS5003;40756;-37.950;145.008;2023-08-24T06:16:34;1;0;
54869;PMS5003;40756;-37.950;145.008;2023-08-24T06:19:03;0;0;
54869;PMS5003;40756;-37.950;145.008;2023-08-24T06:21:33;2;1;
54869;PMS5003;40756;-37.950;145.008;2023-08-24T06:24:02;15;15;
54869;PMS5003;40756;-37.950;145.008;2023-08-24T06:26:32;3;2;
54869;PMS5003;40756;-37.950;145.008;2023-08-24T06:29:01;2;2;
54869;PMS5003;40756;-37.950;145.008;2023-08-24T06:31:31;2;2;
54869;PMS5003;40756;-37.950;145.008;2023-08-24T06:34:00;2;2;
54869;PMS5003;40756;-37.950;145.008;2023-08-24T06:36:30;3;2;
54869;PMS5003;40756;-37.950;145.008;2023-08-24T06:38:59;1;1;
54869;PMS5003;40756;-37.950;145.008;2023-08-24T06:41:28;0;0;
54869;PMS5003;40756;-37.950;145.008;2023-08-24T06:44:02;1;1;
54869;PMS5003;40756;-37.950;145.008;2023-08-24T06:46:32;1;1;
54869;PMS5003;40756;-37.950;145.008;2023-08-24T06:49:01;1;0;
54869;PMS5003;40756;-37.950;145.008;2023-08-24T06:51:31;0;0;
54869;PMS5003;40756;-37.950;145.008;2023-08-24T06:54:01;0;0;
54869;PMS5003;40756;-37.950;145.008;2023-08-24T06:56:31;0;0;
54869;PMS5003;40756;-37.950;145.008;2023-08-24T06:59:00;0;0;
54869;PMS5003;40756;-37.950;145.008;2023-08-24T07:01:30;0;0;
54869;PMS5003;40756;-37.950;145.008;2023-08-24T07:03:59;1;1;
54869;PMS5003;40756;-37.950;145.008;2023-08-24T07:06:29;0;0;
54869;PMS5003;40756;-37.950;145.008;2023-08-24T07:09:00;1;0;
54869;PMS5003;40756;-37.950;145.008;2023-08-24T07:11:29;0;0;
54869;PMS5003;40756;-37.950;145.008;2023-08-24T07:13:59;2;1;
54869;PMS5003;40756;-37.950;145.008;2023-08-24T07:16:29;0;0;
54869;PMS5003;40756;-37.950;145.008;2023-08-24T07:18:58;0;0;
54869;PMS5003;40756;-37.950;145.008;2023-08-24T07:21:28;0;0;
54869;PMS5003;40756;-37.950;145.008;2023-08-24T07:23:57;1;1;
54869;PMS5003;40756;-37.950;145.008;2023-08-24T07:26:27;0;0;
54869;PMS5003;40756;-37.950;145.008;2023-08-24T07:28:56;0;0;
54869;PMS5003;40756;-37.950;145.008;2023-08-24T07:31:27;1;1;
54869;PMS5003;40756;-37.950;145.008;2023-08-24T07:33:56;6;5;
54869;PMS5003;40756;-37.950;145.008;2023-08-24T07:36:26;1;1;
54869;PMS5003;40756;-37.950;145.008;2023-08-24T07:38:56;1;1;
54869;PMS5003;40756;-37.950;145.008;2023-08-24T07:41:25;0;0;
54869;PMS5003;40756;-37.950;145.008;2023-08-24T07:43:55;2;1;
54869;PMS5003;40756;-37.950;145.008;2023-08-24T07:46:24;0;0;
54869;PMS5003;40756;-37.950;145.008;2023-08-24T07:48:53;2;2;
54869;PMS5003;40756;-37.950;145.008;2023-08-24T07:51:23;1;1;
54869;PMS5003;40756;-37.950;145.008;2023-08-24T07:53:53;3;3;
54869;PMS5003;40756;-37.950;145.008;2023-08-24T07:56:23;7;6;
54869;PMS5003;40756;-37.950;145.008;2023-08-24T07:58:53;5;4;
54869;PMS5003;40756;-37.950;145.008;2023-08-24T08:01:22;5;4;
54869;PMS5003;40756;-37.950;145.008;2023-08-24T08:03:52;5;5;
54869;PMS5003;40756;-37.950;145.008;2023-08-24T08:06:21;4;4;
54869;PMS5003;40756;-37.950;145.008;2023-08-24T08:08:51;7;5;
54869;PMS5003;40756;-37.950;145.008;2023-08-24T08:11:21;3;2;
54869;PMS5003;40756;-37.950;145.008;2023-08-24T08:13:50;5;5;
54869;PMS5003;40756;-37.950;145.008;2023-08-24T08:16:20;5;5;
54869;PMS5003;40756;-37.950;145.008;2023-08-24T08:18:50;8;7;
54869;PMS5003;40756;-37.950;145.008;2023-08-24T08:21:19;7;7;
54869;PMS5003;40756;-37.950;145.008;2023-08-24T08:23:48;5;5;
54869;PMS5003;40756;-37.950;145.008;2023-08-24T08:26:18;7;7;
54869;PMS5003;40756;-37.950;145.008;2023-08-24T08:28:48;5;4;
54869;PMS5003;40756;-37.950;145.008;2023-08-24T08:31:17;1;1;
54869;PMS5003;40756;-37.950;145.008;2023-08-24T08:33:47;2;2;
54869;PMS5003;40756;-37.950;145.008;2023-08-24T08:36:17;3;3;
54869;PMS5003;40756;-37.950;145.008;2023-08-24T08:38:46;4;4;
54869;PMS5003;40756;-37.950;145.008;2023-08-24T08:41:16;7;6;
54869;PMS5003;40756;-37.950;145.008;2023-08-24T08:43:54;4;4;
54869;PMS5003;40756;-37.950;145.008;2023-08-24T08:46:24;3;3;
54869;PMS5003;40756;-37.950;145.008;2023-08-24T08:48:54;3;3;
54869;PMS5003;40756;-37.950;145.008;2023-08-24T08:51:25;2;2;
54869;PMS5003;40756;-37.950;145.008;2023-08-24T08:53:55;2;2;
54869;PMS5003;40756;-37.950;145.008;2023-08-24T08:56:26;2;2;
54869;PMS5003;40756;-37.950;145.008;2023-08-24T08:58:56;0;0;
54869;PMS5003;40756;-37.950;145.008;2023-08-24T09:01:28;2;2;
54869;PMS5003;40756;-37.950;145.008;2023-08-24T09:03:57;5;5;
54869;PMS5003;40756;-37.950;145.008;2023-08-24T09:06:28;4;4;
54869;PMS5003;40756;-37.950;145.008;2023-08-24T09:08:58;5;5;
54869;PMS5003;40756;-37.950;145.008;2023-08-24T09:11:27;4;3;
54869;PMS5003;40756;-37.950;145.008;2023-08-24T09:13:57;5;4;
54869;PMS5003;40756;-37.950;145.008;2023-08-24T09:16:29;2;2;
54869;PMS5003;40756;-37.950;145.008;2023-08-24T09:19:00;2;2;
54869;PMS5003;40756;-37.950;145.008;2023-08-24T09:21:37;4;4;
54869;PMS5003;40756;-37.950;145.008;2023-08-24T09:24:07;2;2;
54869;PMS5003;40756;-37.950;145.008;2023-08-24T09:26:38;7;5;
54869;PMS5003;40756;-37.950;145.008;2023-08-24T09:29:12;2;2;
54869;PMS5003;40756;-37.950;145.008;2023-08-24T09:31:42;3;2;
54869;PMS5003;40756;-37.950;145.008;2023-08-24T09:34:12;2;2;
54869;PMS5003;40756;-37.950;145.008;2023-08-24T09:36:42;2;2;
54869;PMS5003;40756;-37.950;145.008;2023-08-24T09:39:11;2;2;
54869;PMS5003;40756;-37.950;145.008;2023-08-24T09:41:44;1;1;
54869;PMS5003;40756;-37.950;145.008;2023-08-24T09:44:17;2;2;
54869;PMS5003;40756;-37.950;145.008;2023-08-24T09:46:46;3;2;
54869;PMS5003;40756;-37.950;145.008;2023-08-24T09:49:17;3;3;
54869;PMS5003;40756;-37.950;145.008;2023-08-24T09:51:48;3;3;
54869;PMS5003;40756;-37.950;145.008;2023-08-24T09:54:19;1;1;
54869;PMS5003;40756;-37.950;145.008;2023-08-24T09:56:55;2;2;
54869;PMS5003;40756;-37.950;145.008;2023-08-24T09:59:26;2;2;
54869;PMS5003;40756;-37.950;145.008;2023-08-24T10:01:59;1;1;
54869;PMS5003;40756;-37.950;145.008;2023-08-24T10:04:29;3;3;
54869;PMS5003;40756;-37.950;145.008;2023-08-24T10:07:05;5;3;
54869;PMS5003;40756;-37.950;145.008;2023-08-24T10:09:38;1;1;
54869;PMS5003;40756;-37.950;145.008;2023-08-24T10:12:15;3;3;
54869;PMS5003;40756;-37.950;145.008;2023-08-24T10:14:51;2;2;
54869;PMS5003;40756;-37.950;145.008;2023-08-24T10:17:27;1;1;
54869;PMS5003;40756;-37.950;145.008;2023-08-24T10:19:57;2;2;
54869;PMS5003;40756;-37.950;145.008;2023-08-24T10:22:27;1;1;
54869;PMS5003;40756;-37.950;145.008;2023-08-24T10:24:58;2;2;
54869;PMS5003;40756;-37.950;145.008;2023-08-24T10:27:28;3;2;
54869;PMS5003;40756;-37.950;145.008;2023-08-24T10:29:57;2;2;
54869;PMS5003;40756;-37.950;145.008;2023-08-24T10:32:27;2;2;
54869;PMS5003;40756;-37.950;145.008;2023-08-24T10:34:57;4;4;
54869;PMS5003;40756;-37.950;145.008;2023-08-24T10:37:27;2;2;
54869;PMS5003;40756;-37.950;145.008;2023-08-24T10:39:56;3;3;
54869;PMS5003;40756;-37.950;145.008;2023-08-24T10:42:26;1;1;
54869;PMS5003;40756;-37.950;145.008;2023-08-24T10:44:56;4;4;
54869;PMS5003;40756;-37.950;145.008;2023-08-24T10:47:25;2;2;
54869;PMS5003;40756;-37.950;145.008;2023-08-24T10:49:59;1;0;
54869;PMS5003;40756;-37.950;145.008;2023-08-24T10:52:31;3;3;
54869;PMS5003;40756;-37.950;145.008;2023-08-24T10:55:03;1;1;
54869;PMS5003;40756;-37.950;145.008;2023-08-24T10:57:55;2;2;
54869;PMS5003;40756;-37.950;145.008;2023-08-24T11:00:27;2;1;
54869;PMS5003;40756;-37.950;145.008;2023-08-24T11:02:57;1;1;
54869;PMS5003;40756;-37.950;145.008;2023-08-24T11:05:28;1;1;
54869;PMS5003;40756;-37.950;145.008;2023-08-24T11:07:58;1;1;
54869;PMS5003;40756;-37.950;145.008;2023-08-24T11:10:31;2;1;
54869;PMS5003;40756;-37.950;145.008;2023-08-24T11:13:12;4;2;
54869;PMS5003;40756;-37.950;145.008;2023-08-24T11:15:43;2;2;
54869;PMS5003;40756;-37.950;145.008;2023-08-24T11:18:15;2;2;
54869;PMS5003;40756;-37.950;145.008;2023-08-24T11:20:50;2;2;
54869;PMS5003;40756;-37.950;145.008;2023-08-24T11:23:21;3;2;
54869;PMS5003;40756;-37.950;145.008;2023-08-24T11:25:51;2;2;
54869;PMS5003;40756;-37.950;145.008;2023-08-24T11:28:23;4;3;
54869;PMS5003;40756;-37.950;145.008;2023-08-24T11:30:53;2;2;
54869;PMS5003;40756;-37.950;145.008;2023-08-24T11:33:31;2;2;
54869;PMS5003;40756;-37.950;145.008;2023-08-24T11:36:03;3;3;
54869;PMS5003;40756;-37.950;145.008;2023-08-24T11:38:37;1;1;
54869;PMS5003;40756;-37.950;145.008;2023-08-24T11:41:14;4;3;
54869;PMS5003;40756;-37.950;145.008;2023-08-24T11:43:46;5;4;
54869;PMS5003;40756;-37.950;145.008;2023-08-24T11:46:16;4;4;
54869;PMS5003;40756;-37.950;145.008;2023-08-24T11:48:46;9;8;
54869;PMS5003;40756;-37.950;145.008;2023-08-24T11:51:16;6;5;
54869;PMS5003;40756;-37.950;145.008;2023-08-24T11:53:46;9;8;
54869;PMS5003;40756;-37.950;145.008;2023-08-24T11:56:16;10;10;
54869;PMS5003;40756;-37.950;145.008;2023-08-24T11:58:48;6;6;
54869;PMS5003;40756;-37.950;145.008;2023-08-24T12:01:17;5;5;
54869;PMS5003;40756;-37.950;145.008;2023-08-24T12:03:47;10;9;
54869;PMS5003;40756;-37.950;145.008;2023-08-24T12:06:16;8;7;
54869;PMS5003;40756;-37.950;145.008;2023-08-24T12:08:46;8;7;
54869;PMS5003;40756;-37.950;145.008;2023-08-24T12:11:17;6;6;
54869;PMS5003;40756;-37.950;145.008;2023-08-24T12:13:48;6;6;
54869;PMS5003;40756;-37.950;145.008;2023-08-24T12:16:19;11;11;
54869;PMS5003;40756;-37.950;145.008;2023-08-24T12:18:50;6;6;
54869;PMS5003;40756;-37.950;145.008;2023-08-24T12:21:22;7;6;
54869;PMS5003;40756;-37.950;145.008;2023-08-24T12:23:59;6;6;
54869;PMS5003;40756;-37.950;145.008;2023-08-24T12:26:29;5;5;
54869;PMS5003;40756;-37.950;145.008;2023-08-24T12:29:01;6;6;
54869;PMS5003;40756;-37.950;145.008;2023-08-24T12:31:31;11;11;
54869;PMS5003;40756;-37.950;145.008;2023-08-24T12:34:02;9;9;
54869;PMS5003;40756;-37.950;145.008;2023-08-24T12:36:33;10;9;
54869;PMS5003;40756;-37.950;145.008;2023-08-24T12:39:04;6;6;
54869;PMS5003;40756;-37.950;145.008;2023-08-24T12:41:34;6;6;
54869;PMS5003;40756;-37.950;145.008;2023-08-24T12:44:03;7;7;
54869;PMS5003;40756;-37.950;145.008;2023-08-24T12:46:33;6;5;
54869;PMS5003;40756;-37.950;145.008;2023-08-24T12:49:05;6;6;
54869;PMS5003;40756;-37.950;145.008;2023-08-24T12:51:35;5;5;
54869;PMS5003;40756;-37.950;145.008;2023-08-24T12:54:05;7;7;
54869;PMS5003;40756;-37.950;145.008;2023-08-24T12:56:34;8;7;
54869;PMS5003;40756;-37.950;145.008;2023-08-24T12:59:05;4;4;
54869;PMS5003;40756;-37.950;145.008;2023-08-24T13:01:35;4;4;
54869;PMS5003;40756;-37.950;145.008;2023-08-24T13:04:05;5;5;
54869;PMS5003;40756;-37.950;145.008;2023-08-24T13:06:34;5;5;
54869;PMS5003;40756;-37.950;145.008;2023-08-24T13:09:04;5;5;
54869;PMS5003;40756;-37.950;145.008;2023-08-24T13:11:34;4;4;
54869;PMS5003;40756;-37.950;145.008;2023-08-24T13:14:03;3;3;
54869;PMS5003;40756;-37.950;145.008;2023-08-24T13:16:33;5;4;
54869;PMS5003;40756;-37.950;145.008;2023-08-24T13:19:02;2;2;
54869;PMS5003;40756;-37.950;145.008;2023-08-24T13:21:32;3;3;
54869;PMS5003;40756;-37.950;145.008;2023-08-24T13:24:02;5;4;
54869;PMS5003;40756;-37.950;145.008;2023-08-24T13:26:31;4;4;
54869;PMS5003;40756;-37.950;145.008;2023-08-24T13:29:01;4;4;
54869;PMS5003;40756;-37.950;145.008;2023-08-24T13:31:31;4;4;
54869;PMS5003;40756;-37.950;145.008;2023-08-24T13:34:01;3;3;
54869;PMS5003;40756;-37.950;145.008;2023-08-24T13:36:30;5;5;
54869;PMS5003;40756;-37.950;145.008;2023-08-24T13:39:00;5;5;
54869;PMS5003;40756;-37.950;145.008;2023-08-24T13:41:30;4;4;
54869;PMS5003;40756;-37.950;145.008;2023-08-24T13:44:00;5;5;
54869;PMS5003;40756;-37.950;145.008;2023-08-24T13:46:29;3;3;
54869;PMS5003;40756;-37.950;145.008;2023-08-24T13:48:59;4;4;
54869;PMS5003;40756;-37.950;145.008;2023-08-24T13:51:29;9;9;
54869;PMS5003;40756;-37.950;145.008;2023-08-24T13:53:58;9;9;
54869;PMS5003;40756;-37.950;145.008;2023-08-24T13:56:28;11;11;
54869;PMS5003;40756;-37.950;145.008;2023-08-24T13:58:57;2;2;
54869;PMS5003;40756;-37.950;145.008;2023-08-24T14:01:28;2;2;
54869;PMS5003;40756;-37.950;145.008;2023-08-24T14:03:58;3;3;
54869;PMS5003;40756;-37.950;145.008;2023-08-24T14:06:28;2;2;
54869;PMS5003;40756;-37.950;145.008;2023-08-24T14:08:58;1;1;
54869;PMS5003;40756;-37.950;145.008;2023-08-24T14:11:28;2;2;
54869;PMS5003;40756;-37.950;145.008;2023-08-24T14:13:58;1;1;
54869;PMS5003;40756;-37.950;145.008;2023-08-24T14:16:27;2;1;
54869;PMS5003;40756;-37.950;145.008;2023-08-24T14:18:58;2;2;
54869;PMS5003;40756;-37.950;145.008;2023-08-24T14:21:27;4;4;
54869;PMS5003;40756;-37.950;145.008;2023-08-24T14:23:57;4;4;
54869;PMS5003;40756;-37.950;145.008;2023-08-24T14:26:27;9;8;
54869;PMS5003;40756;-37.950;145.008;2023-08-24T14:28:57;5;5;
54869;PMS5003;40756;-37.950;145.008;2023-08-24T14:31:28;3;3;
54869;PMS5003;40756;-37.950;145.008;2023-08-24T14:33:57;6;6;
54869;PMS5003;40756;-37.950;145.008;2023-08-24T14:36:28;2;2;
54869;PMS5003;40756;-37.950;145.008;2023-08-24T14:38:57;9;8;
54869;PMS5003;40756;-37.950;145.008;2023-08-24T14:41:27;4;4;
54869;PMS5003;40756;-37.950;145.008;2023-08-24T14:43:56;7;7;
54869;PMS5003;40756;-37.950;145.008;2023-08-24T14:46:26;5;5;
54869;PMS5003;40756;-37.950;145.008;2023-08-24T14:48:56;5;5;
54869;PMS5003;40756;-37.950;145.008;2023-08-24T14:51:25;5;5;
54869;PMS5003;40756;-37.950;145.008;2023-08-24T14:53:55;5;5;
54869;PMS5003;40756;-37.950;145.008;2023-08-24T14:56:25;5;5;
54869;PMS5003;40756;-37.950;145.008;2023-08-24T14:58:54;6;6;
54869;PMS5003;40756;-37.950;145.008;2023-08-24T15:01:24;8;7;
54869;PMS5003;40756;-37.950;145.008;2023-08-24T15:03:54;5;5;
54869;PMS5003;40756;-37.950;145.008;2023-08-24T15:06:23;5;5;
54869;PMS5003;40756;-37.950;145.008;2023-08-24T15:08:53;10;10;
54869;PMS5003;40756;-37.950;145.008;2023-08-24T15:11:22;12;11;
54869;PMS5003;40756;-37.950;145.008;2023-08-24T15:13:53;20;20;
54869;PMS5003;40756;-37.950;145.008;2023-08-24T15:16:22;15;15;
54869;PMS5003;40756;-37.950;145.008;2023-08-24T15:18:52;24;24;
54869;PMS5003;40756;-37.950;145.008;2023-08-24T15:21:22;26;25;
54869;PMS5003;40756;-37.950;145.008;2023-08-24T15:23:52;25;25;
54869;PMS5003;40756;-37.950;145.008;2023-08-24T15:26:21;29;29;
54869;PMS5003;40756;-37.950;145.008;2023-08-24T15:29:24;27;27;
54869;PMS5003;40756;-37.950;145.008;2023-08-24T15:31:53;24;23;
54869;PMS5003;40756;-37.950;145.008;2023-08-24T15:34:23;5;4;
54869;PMS5003;40756;-37.950;145.008;2023-08-24T15:36:53;25;25;
54869;PMS5003;40756;-37.950;145.008;2023-08-24T15:39:22;13;13;
54869;PMS5003;40756;-37.950;145.008;2023-08-24T15:41:52;29;28;
54869;PMS5003;40756;-37.950;145.008;2023-08-24T15:44:22;6;6;
54869;PMS5003;40756;-37.950;145.008;2023-08-24T15:46:51;7;7;
54869;PMS5003;40756;-37.950;145.008;2023-08-24T15:49:21;6;6;
54869;PMS5003;40756;-37.950;145.008;2023-08-24T15:51:51;8;8;
54869;PMS5003;40756;-37.950;145.008;2023-08-24T15:54:21;6;6;
54869;PMS5003;40756;-37.950;145.008;2023-08-24T15:56:50;7;7;
54869;PMS5003;40756;-37.950;145.008;2023-08-24T15:59:20;11;11;
54869;PMS5003;40756;-37.950;145.008;2023-08-24T16:01:50;8;8;
54869;PMS5003;40756;-37.950;145.008;2023-08-24T16:04:22;5;5;
54869;PMS5003;40756;-37.950;145.008;2023-08-24T16:07:01;8;7;
54869;PMS5003;40756;-37.950;145.008;2023-08-24T16:09:35;7;7;
54869;PMS5003;40756;-37.950;145.008;2023-08-24T16:12:04;13;12;
54869;PMS5003;40756;-37.950;145.008;2023-08-24T16:14:34;8;8;
54869;PMS5003;40756;-37.950;145.008;2023-08-24T16:17:04;7;7;
54869;PMS5003;40756;-37.950;145.008;2023-08-24T16:19:34;7;6;